createdAt,value
2022-10-12T04:30:32.992Z,5.60
2022-10-12T04:31:32.947Z,5.58
2022-10-12T04:32:32.973Z,5.64
2022-10-12T04:33:32.943Z,5.58
2022-10-12T04:34:32.916Z,5.61
2022-10-12T04:35:32.921Z,5.61
2022-10-12T04:36:32.890Z,5.61
2022-10-12T04:37:32.886Z,5.64
2022-10-12T04:38:32.885Z,5.67
2022-10-12T04:39:32.865Z,5.61
2022-10-12T04:40:32.887Z,5.63
2022-10-12T04:41:32.835Z,5.64
2022-10-12T04:42:32.826Z,5.58
2022-10-12T04:43:32.834Z,5.61
2022-10-12T04:44:32.813Z,5.54
2022-10-12T04:45:32.796Z,5.60
2022-10-12T04:46:32.834Z,5.57
2022-10-12T04:47:32.769Z,5.56
2022-10-12T04:48:32.759Z,5.57
2022-10-12T04:49:32.788Z,5.60
2022-10-12T04:50:32.741Z,5.54
2022-10-12T04:51:32.732Z,5.57
2022-10-12T04:52:32.735Z,5.60
2022-10-12T04:53:32.705Z,5.54
2022-10-12T04:54:32.702Z,5.64
2022-10-12T04:55:32.705Z,5.60
2022-10-12T04:56:32.677Z,5.57
2022-10-12T04:57:32.680Z,5.58
2022-10-12T04:58:32.674Z,5.64
2022-10-12T04:59:32.645Z,5.64
2022-10-12T05:00:32.639Z,5.68
2022-10-12T05:01:32.698Z,5.61
2022-10-12T05:02:32.627Z,5.68
2022-10-12T05:03:32.598Z,5.57
2022-10-12T05:04:32.617Z,5.61
2022-10-12T05:05:32.575Z,5.63
2022-10-12T05:06:32.592Z,5.60
2022-10-12T05:07:32.561Z,5.58
2022-10-12T05:08:32.547Z,5.63
2022-10-12T05:09:32.534Z,5.63
2022-10-12T05:10:32.550Z,5.54
2022-10-12T05:11:32.533Z,5.65
2022-10-12T05:12:32.507Z,5.64
2022-10-12T05:13:32.496Z,5.65
2022-10-12T05:14:35.103Z,5.68
2022-10-12T05:15:32.493Z,5.72
2022-10-12T05:16:32.482Z,5.71
2022-10-12T05:17:32.466Z,5.74
2022-10-12T05:18:32.457Z,5.64
2022-10-12T05:19:32.429Z,5.68
2022-10-12T05:20:32.419Z,5.76
2022-10-12T05:21:32.426Z,5.65
2022-10-12T05:22:32.412Z,5.79
2022-10-12T05:23:32.387Z,5.76
2022-10-12T05:24:32.381Z,5.82
2022-10-12T05:25:32.362Z,5.82
2022-10-12T05:26:32.353Z,5.76
2022-10-12T05:27:32.365Z,5.74
2022-10-12T05:28:35.841Z,5.82
2022-10-12T05:29:33.323Z,5.86
2022-10-12T05:30:32.307Z,5.85
2022-10-12T05:31:32.294Z,5.83
2022-10-12T05:32:32.293Z,5.90
2022-10-12T05:33:32.292Z,5.89
2022-10-12T05:34:32.288Z,5.83
2022-10-12T05:35:32.259Z,5.82
2022-10-12T05:36:32.297Z,5.86
2022-10-12T05:37:32.229Z,5.78
2022-10-12T05:38:32.231Z,5.79
2022-10-12T05:39:32.242Z,5.83
2022-10-12T05:40:32.221Z,5.89
2022-10-12T05:41:32.192Z,5.82
2022-10-12T05:42:32.201Z,5.90
2022-10-12T05:43:32.172Z,5.83
2022-10-12T05:44:32.162Z,5.82
2022-10-12T05:45:32.170Z,5.85
2022-10-12T05:46:32.178Z,5.85
2022-10-12T05:47:32.127Z,5.83
2022-10-12T05:48:32.112Z,5.82
2022-10-12T05:49:32.102Z,5.85
2022-10-12T05:50:32.130Z,5.81
2022-10-12T05:51:32.101Z,5.81
2022-10-12T05:52:32.091Z,5.85
2022-10-12T05:53:32.068Z,5.83
2022-10-12T05:54:32.061Z,5.78
2022-10-12T05:55:32.039Z,5.78
2022-10-12T05:56:32.050Z,5.82
2022-10-12T05:57:32.021Z,5.81
2022-10-12T05:58:32.026Z,5.83
2022-10-12T05:59:31.996Z,5.81
2022-10-12T06:00:31.986Z,5.82
2022-10-12T06:01:32.043Z,5.83
2022-10-12T06:02:31.960Z,5.82
2022-10-12T06:03:35.030Z,5.83
2022-10-12T06:04:31.960Z,5.81
2022-10-12T06:05:31.939Z,5.85
2022-10-12T06:06:31.947Z,5.78
2022-10-12T06:07:31.931Z,5.81
2022-10-12T06:08:31.898Z,5.81
2022-10-12T06:09:31.891Z,5.85
2022-10-12T06:10:32.018Z,5.79
2022-10-12T06:11:35.491Z,5.85
2022-10-12T06:12:31.862Z,5.81
2022-10-12T06:13:31.866Z,5.86
2022-10-12T06:14:31.831Z,5.85
2022-10-12T06:15:31.826Z,5.72
2022-10-12T06:16:31.832Z,5.82
2022-10-12T06:17:31.807Z,5.86
2022-10-12T06:18:31.809Z,5.91
2022-10-12T06:19:31.797Z,5.86
2022-10-12T06:20:31.768Z,5.93
2022-10-12T06:21:34.276Z,5.89
2022-10-12T06:22:31.764Z,5.91
2022-10-12T06:23:31.733Z,5.94
2022-10-12T06:24:31.749Z,5.96
2022-10-12T06:25:31.730Z,6.04
2022-10-12T06:26:31.713Z,6.08
2022-10-12T06:27:31.731Z,6.14
2022-10-12T06:28:31.735Z,6.06
2022-10-12T06:29:31.669Z,6.17
2022-10-12T06:30:31.670Z,6.15
2022-10-12T06:31:31.664Z,6.15
2022-10-12T06:32:31.633Z,6.19
2022-10-12T06:33:31.643Z,6.22
2022-10-12T06:34:31.632Z,6.31
2022-10-12T06:35:31.599Z,6.31
2022-10-12T06:36:31.593Z,6.31
2022-10-12T06:37:48.954Z,6.33
2022-10-12T06:38:32.592Z,6.44
2022-10-12T06:39:31.565Z,6.46
2022-10-12T06:40:31.568Z,6.37
2022-10-12T06:41:31.538Z,6.51
2022-10-12T06:42:31.545Z,6.51
2022-10-12T06:43:31.534Z,6.48
2022-10-12T06:44:31.563Z,6.51
2022-10-12T06:45:31.521Z,6.52
2022-10-12T06:46:31.488Z,6.48
2022-10-12T06:47:31.474Z,6.61
2022-10-12T06:48:31.484Z,6.51
2022-10-12T06:49:31.448Z,6.51
2022-10-12T06:50:31.455Z,6.44
2022-10-12T06:51:31.447Z,6.46
2022-10-12T06:52:31.421Z,6.56
2022-10-12T06:53:31.439Z,6.56
2022-10-12T06:54:31.417Z,6.46
2022-10-12T06:55:31.392Z,6.58
2022-10-12T06:56:31.387Z,6.64
2022-10-12T06:57:31.386Z,6.74
2022-10-12T06:58:31.356Z,6.70
2022-10-12T06:59:31.363Z,6.85
2022-10-12T07:00:31.345Z,7.03
2022-10-12T07:01:31.389Z,7.07
2022-10-12T07:02:31.306Z,7.20
2022-10-12T07:03:31.334Z,7.24
2022-10-12T07:04:31.291Z,7.35
2022-10-12T07:05:31.277Z,7.58
2022-10-12T07:06:31.270Z,7.63
2022-10-12T07:07:31.267Z,7.79
2022-10-12T07:08:31.278Z,7.86
2022-10-12T07:09:31.247Z,7.93
2022-10-12T07:10:31.245Z,8.07
2022-10-12T07:11:31.231Z,7.98
2022-10-12T07:12:31.200Z,8.22
2022-10-12T07:13:31.198Z,8.34
2022-10-12T07:14:31.187Z,8.47
2022-10-12T07:15:31.170Z,8.44
2022-10-12T07:16:31.187Z,8.56
2022-10-12T07:17:31.169Z,8.55
2022-10-12T07:18:31.141Z,8.50
2022-10-12T07:19:31.139Z,8.61
2022-10-12T07:20:31.123Z,8.45
2022-10-12T07:21:31.125Z,8.40
2022-10-12T07:22:31.095Z,8.52
2022-10-12T07:23:31.101Z,8.38
2022-10-12T07:24:31.069Z,8.43
2022-10-12T07:25:31.111Z,8.56
2022-10-12T07:26:31.086Z,8.55
2022-10-12T07:27:31.044Z,8.62
2022-10-12T07:28:31.124Z,8.76
2022-10-12T07:29:31.035Z,8.96
2022-10-12T07:30:31.014Z,9.17
2022-10-12T07:31:30.998Z,9.32
2022-10-12T07:32:31.020Z,9.40
2022-10-12T07:33:31.005Z,9.51
2022-10-12T07:34:30.974Z,9.58
2022-10-12T07:35:30.951Z,9.76
2022-10-12T07:36:57.532Z,9.81
2022-10-12T07:37:31.951Z,9.74
2022-10-12T07:38:30.964Z,9.84
2022-10-12T07:39:30.910Z,9.86
2022-10-12T07:40:30.903Z,9.96
2022-10-12T07:41:30.907Z,10.07
2022-10-12T07:42:30.997Z,9.99
2022-10-12T07:43:30.864Z,9.84
2022-10-12T07:44:30.878Z,9.93
2022-10-12T07:45:30.849Z,10.11
2022-10-12T07:46:30.845Z,10.04
2022-10-12T07:47:30.833Z,10.08
2022-10-12T07:48:30.936Z,10.20
2022-10-12T07:49:30.822Z,10.27
2022-10-12T07:50:30.790Z,10.29
2022-10-12T07:51:30.785Z,10.34
2022-10-12T07:52:30.771Z,10.52
2022-10-12T07:53:30.767Z,10.61
2022-10-12T07:54:30.784Z,10.63
2022-10-12T07:55:30.800Z,10.67
2022-10-12T07:56:30.720Z,10.68
2022-10-12T07:57:30.725Z,10.68
2022-10-12T07:58:30.716Z,10.73
2022-10-12T07:59:30.719Z,10.91
2022-10-12T08:00:30.701Z,10.92
2022-10-12T08:01:30.775Z,10.97
2022-10-12T08:02:30.660Z,11.06
2022-10-12T08:03:30.652Z,11.07
2022-10-12T08:04:30.705Z,11.17
2022-10-12T08:05:30.629Z,11.36
2022-10-12T08:06:30.679Z,11.40
2022-10-12T08:07:30.652Z,11.47
2022-10-12T08:08:30.593Z,11.52
2022-10-12T08:09:30.600Z,11.47
2022-10-12T08:10:30.594Z,11.58
2022-10-12T08:11:30.570Z,11.47
2022-10-12T08:12:30.567Z,11.43
2022-10-12T08:13:30.552Z,11.57
2022-10-12T08:14:30.562Z,11.46
2022-10-12T08:15:30.519Z,11.46
2022-10-12T08:16:30.521Z,11.69
2022-10-12T08:17:30.506Z,11.57
2022-10-12T08:18:30.478Z,11.58
2022-10-12T08:19:34.490Z,11.44
2022-10-12T08:20:30.458Z,11.44
2022-10-12T08:21:30.468Z,11.44
2022-10-12T08:22:30.468Z,11.47
2022-10-12T08:23:30.432Z,11.40
2022-10-12T08:24:30.451Z,11.60
2022-10-12T08:25:30.432Z,11.72
2022-10-12T08:26:30.397Z,11.85
2022-10-12T08:27:30.388Z,11.86
2022-10-12T08:28:30.453Z,12.02
2022-10-12T08:29:30.363Z,12.16
2022-10-12T08:30:30.424Z,12.13
2022-10-12T08:31:30.342Z,12.13
2022-10-12T08:32:30.330Z,12.21
2022-10-12T08:33:30.349Z,12.45
2022-10-12T08:34:30.308Z,12.37
2022-10-12T08:35:30.339Z,12.39
2022-10-12T08:36:30.290Z,12.20
2022-10-12T08:37:30.283Z,12.28
2022-10-12T08:38:30.280Z,12.19
2022-10-12T08:39:30.296Z,12.24
2022-10-12T08:40:30.242Z,12.20
2022-10-12T08:41:30.283Z,12.16
2022-10-12T08:42:30.224Z,12.31
2022-10-12T08:43:30.229Z,12.29
2022-10-12T08:44:30.203Z,12.24
2022-10-12T08:45:30.840Z,12.35
2022-10-12T08:46:30.216Z,12.38
2022-10-12T08:47:30.167Z,12.54
2022-10-12T08:48:30.151Z,12.74
2022-10-12T08:49:30.174Z,12.72
2022-10-12T08:50:30.136Z,12.62
2022-10-12T08:51:30.148Z,12.67
2022-10-12T08:52:30.112Z,12.82
2022-10-12T08:53:30.107Z,12.77
2022-10-12T08:54:30.183Z,12.92
2022-10-12T08:55:30.078Z,12.92
2022-10-12T08:56:30.079Z,12.92
2022-10-12T08:57:30.107Z,12.93
2022-10-12T08:58:30.045Z,12.93
2022-10-12T08:59:30.064Z,13.22
2022-10-12T09:00:30.060Z,13.26
2022-10-12T09:01:30.068Z,13.12
2022-10-12T09:02:30.043Z,13.20
2022-10-12T09:03:30.001Z,13.25
2022-10-12T09:04:29.991Z,13.26
2022-10-12T09:05:29.989Z,13.23
2022-10-12T09:06:29.955Z,13.29
2022-10-12T09:07:29.963Z,13.44
2022-10-12T09:08:29.937Z,13.55
2022-10-12T09:09:29.944Z,13.46
2022-10-12T09:10:29.952Z,13.57
2022-10-12T09:11:29.913Z,13.66
2022-10-12T09:12:29.916Z,13.81
2022-10-12T09:13:29.904Z,13.84
2022-10-12T09:14:29.895Z,13.85
2022-10-12T09:15:29.895Z,13.73
2022-10-12T09:16:29.850Z,13.66
2022-10-12T09:17:29.840Z,13.63
2022-10-12T09:18:29.871Z,13.60
2022-10-12T09:19:29.852Z,13.44
2022-10-12T09:20:29.811Z,13.55
2022-10-12T09:21:29.811Z,13.39
2022-10-12T09:22:29.826Z,13.29
2022-10-12T09:23:29.778Z,13.19
2022-10-12T09:24:29.811Z,13.05
2022-10-12T09:25:29.794Z,12.96
2022-10-12T09:26:29.735Z,12.90
2022-10-12T09:27:29.730Z,12.96
2022-10-12T09:28:29.893Z,12.87
2022-10-12T09:29:29.716Z,12.95
2022-10-12T09:30:29.704Z,12.89
2022-10-12T09:31:29.695Z,12.92
2022-10-12T09:32:29.684Z,12.83
2022-10-12T09:33:29.665Z,12.85
2022-10-12T09:34:29.691Z,12.82
2022-10-12T09:35:29.640Z,12.79
2022-10-12T09:36:29.636Z,12.82
2022-10-12T09:37:29.667Z,12.78
2022-10-12T09:38:29.615Z,12.85
2022-10-12T09:39:29.597Z,12.95
2022-10-12T09:40:29.637Z,13.01
2022-10-12T09:41:29.575Z,12.92
2022-10-12T09:42:29.562Z,13.11
2022-10-12T09:43:29.549Z,13.41
2022-10-12T09:44:29.615Z,13.44
2022-10-12T09:45:29.552Z,13.64
2022-10-12T09:46:29.514Z,13.75
2022-10-12T09:47:29.515Z,13.84
2022-10-12T09:48:29.523Z,14.03
2022-10-12T09:49:29.481Z,14.20
2022-10-12T09:50:29.512Z,14.36
2022-10-12T09:51:29.477Z,14.43
2022-10-12T09:52:29.473Z,14.51
2022-10-12T09:53:29.447Z,14.61
2022-10-12T09:54:29.431Z,14.65
2022-10-12T09:55:29.447Z,14.69
2022-10-12T09:56:29.404Z,14.81
2022-10-12T09:57:29.414Z,14.92
2022-10-12T09:58:29.419Z,15.02
2022-10-12T09:59:29.386Z,15.02
2022-10-12T10:00:29.387Z,15.20
2022-10-12T10:01:29.910Z,15.23
2022-10-12T10:02:29.342Z,15.17
2022-10-12T10:03:31.572Z,15.27
2022-10-12T10:04:29.316Z,15.38
2022-10-12T10:05:29.362Z,15.44
2022-10-12T10:06:29.325Z,15.49
2022-10-12T10:07:29.295Z,15.65
2022-10-12T10:08:29.284Z,15.64
2022-10-12T10:09:29.267Z,15.51
2022-10-12T10:10:30.828Z,15.68
2022-10-12T10:11:29.261Z,15.75
2022-10-12T10:12:29.234Z,15.72
2022-10-12T10:13:29.248Z,15.78
2022-10-12T10:14:29.207Z,15.76
2022-10-12T10:15:29.295Z,15.89
2022-10-12T10:16:29.186Z,15.90
2022-10-12T10:17:29.212Z,15.87
2022-10-12T10:18:29.166Z,16.05
2022-10-12T10:19:29.177Z,16.01
2022-10-12T10:20:29.149Z,16.15
2022-10-12T10:21:29.146Z,16.17
2022-10-12T10:22:29.160Z,16.23
2022-10-12T10:23:29.124Z,16.05
2022-10-12T10:24:29.190Z,15.93
2022-10-12T10:25:29.091Z,16.05
2022-10-12T10:26:29.078Z,16.15
2022-10-12T10:27:29.080Z,16.15
2022-10-12T10:28:29.126Z,16.07
2022-10-12T10:29:29.096Z,15.92
2022-10-12T10:30:33.829Z,15.94
2022-10-12T10:31:30.021Z,16.23
2022-10-12T10:32:29.043Z,16.31
2022-10-12T10:33:28.994Z,16.35
2022-10-12T10:34:28.988Z,16.46
2022-10-12T10:35:29.007Z,16.53
2022-10-12T10:36:28.962Z,16.67
2022-10-12T10:37:28.971Z,16.66
2022-10-12T10:38:29.054Z,16.85
2022-10-12T10:39:29.102Z,16.96
2022-10-12T10:40:28.950Z,16.98
2022-10-12T10:41:28.909Z,17.04
2022-10-12T10:42:28.907Z,16.86
2022-10-12T10:43:28.888Z,16.71
2022-10-12T10:44:28.990Z,16.38
2022-10-12T10:45:28.878Z,16.27
2022-10-12T10:46:28.890Z,15.96
2022-10-12T10:47:28.841Z,15.87
2022-10-12T10:48:28.835Z,15.90
2022-10-12T10:49:28.845Z,15.87
2022-10-12T10:50:28.817Z,15.89
2022-10-12T10:51:28.807Z,15.83
2022-10-12T10:52:28.811Z,15.72
2022-10-12T10:53:28.777Z,15.76
2022-10-12T10:54:28.786Z,15.84
2022-10-12T10:55:28.776Z,15.90
2022-10-12T10:56:28.747Z,16.00
2022-10-12T10:57:28.746Z,16.08
2022-10-12T10:58:28.735Z,15.93
2022-10-12T10:59:28.730Z,15.97
2022-10-12T11:00:44.428Z,15.87
2022-10-12T11:01:29.750Z,15.97
2022-10-12T11:02:28.678Z,16.00
2022-10-12T11:03:28.692Z,16.00
2022-10-12T11:04:28.660Z,16.05
2022-10-12T11:05:28.644Z,16.14
2022-10-12T11:06:28.674Z,16.23
2022-10-12T11:07:28.628Z,16.25
2022-10-12T11:08:28.628Z,16.46
2022-10-12T11:09:28.603Z,16.43
2022-10-12T11:10:28.612Z,16.28
2022-10-12T11:11:28.576Z,16.33
2022-10-12T11:12:31.240Z,16.42
2022-10-12T11:13:28.589Z,16.48
2022-10-12T11:14:28.551Z,16.45
2022-10-12T11:15:28.586Z,16.46
2022-10-12T11:16:28.544Z,16.31
2022-10-12T11:17:28.521Z,16.45
2022-10-12T11:18:28.506Z,16.56
2022-10-12T11:19:28.486Z,16.58
2022-10-12T11:20:28.507Z,16.58
2022-10-12T11:21:28.523Z,16.57
2022-10-12T11:22:28.467Z,16.57
2022-10-12T11:23:28.452Z,16.73
2022-10-12T11:24:28.454Z,16.53
2022-10-12T11:25:28.438Z,16.35
2022-10-12T11:26:28.508Z,16.28
2022-10-12T11:27:28.403Z,16.31
2022-10-12T11:28:28.427Z,16.28
2022-10-12T11:29:28.384Z,16.30
2022-10-12T11:30:28.394Z,16.33
2022-10-12T11:31:28.390Z,16.33
2022-10-12T11:32:28.379Z,16.17
2022-10-12T11:33:28.372Z,16.11
2022-10-12T11:34:28.346Z,16.07
2022-10-12T11:35:28.327Z,16.04
2022-10-12T11:36:28.332Z,16.09
2022-10-12T11:37:28.309Z,16.25
2022-10-12T11:38:28.311Z,16.24
2022-10-12T11:39:28.299Z,16.24
2022-10-12T11:40:55.459Z,16.23
2022-10-12T11:41:36.641Z,16.21
2022-10-12T11:42:29.320Z,16.20
2022-10-12T11:43:28.232Z,16.14
2022-10-12T11:44:30.598Z,16.11
2022-10-12T11:45:28.313Z,16.27
2022-10-12T11:46:28.203Z,16.33
2022-10-12T11:47:28.191Z,16.56
2022-10-12T11:48:28.181Z,16.61
2022-10-12T11:49:28.205Z,16.66
2022-10-12T11:50:28.183Z,16.81
2022-10-12T11:51:28.163Z,16.85
2022-10-12T11:52:29.221Z,16.96
2022-10-12T11:53:28.150Z,17.03
2022-10-12T11:54:28.124Z,16.96
2022-10-12T11:55:28.103Z,17.04
2022-10-12T11:56:28.104Z,17.11
2022-10-12T11:57:28.091Z,17.18
2022-10-12T11:58:48.867Z,17.21
2022-10-12T11:59:29.078Z,17.21
2022-10-12T12:00:28.051Z,17.23
2022-10-12T12:01:28.047Z,17.26
2022-10-12T12:02:28.048Z,17.15
2022-10-12T12:03:28.075Z,17.14
2022-10-12T12:04:44.322Z,17.12
2022-10-12T12:05:29.021Z,17.07
2022-10-12T12:06:27.985Z,17.15
2022-10-12T12:07:28.001Z,17.06
2022-10-12T12:08:27.965Z,17.15
2022-10-12T12:09:27.955Z,17.03
2022-10-12T12:10:28.124Z,17.14
2022-10-12T12:11:27.949Z,17.14
2022-10-12T12:12:27.957Z,17.08
2022-10-12T12:13:27.909Z,17.22
2022-10-12T12:14:27.922Z,17.26
2022-10-12T12:15:27.906Z,17.31
2022-10-12T12:16:27.921Z,17.31
2022-10-12T12:17:31.799Z,17.25
2022-10-12T12:18:27.901Z,17.26
2022-10-12T12:19:27.850Z,17.26
2022-10-12T12:20:27.839Z,17.34
2022-10-12T12:21:27.837Z,17.30
2022-10-12T12:22:27.833Z,17.22
2022-10-12T12:23:27.841Z,17.23
2022-10-12T12:24:27.800Z,17.11
2022-10-12T12:25:27.834Z,17.12
2022-10-12T12:26:27.795Z,17.23
2022-10-12T12:27:27.752Z,17.36
2022-10-12T12:28:27.836Z,17.36
2022-10-12T12:29:27.803Z,17.40
2022-10-12T12:30:27.756Z,17.49
2022-10-12T12:31:27.729Z,17.34
2022-10-12T12:32:27.768Z,17.30
2022-10-12T12:33:27.709Z,17.34
2022-10-12T12:34:27.691Z,17.33
2022-10-12T12:35:27.697Z,17.37
2022-10-12T12:36:27.711Z,17.43
2022-10-12T12:37:27.664Z,17.38
2022-10-12T12:38:27.667Z,17.36
2022-10-12T12:39:27.644Z,17.41
2022-10-12T12:40:27.617Z,17.16
2022-10-12T12:41:27.642Z,17.08
2022-10-12T12:42:27.593Z,17.04
2022-10-12T12:43:27.589Z,16.97
2022-10-12T12:44:27.568Z,16.94
2022-10-12T12:45:27.578Z,16.94
2022-10-12T12:46:27.615Z,17.04
2022-10-12T12:47:44.524Z,17.12
2022-10-12T12:48:28.528Z,17.15
2022-10-12T12:49:27.510Z,17.12
2022-10-12T12:50:27.509Z,17.14
2022-10-12T12:51:27.521Z,17.16
2022-10-12T12:52:27.477Z,17.15
2022-10-12T12:53:27.487Z,17.15
2022-10-12T12:54:27.472Z,17.28
2022-10-12T12:55:27.471Z,17.07
2022-10-12T12:56:27.451Z,17.08
2022-10-12T12:57:27.426Z,17.08
2022-10-12T12:58:27.448Z,17.07
2022-10-12T12:59:27.417Z,17.03
2022-10-12T13:00:27.601Z,17.06
2022-10-12T13:01:27.497Z,17.03
2022-10-12T13:02:27.443Z,17.11
2022-10-12T13:03:27.375Z,17.14
2022-10-12T13:04:27.365Z,17.18
2022-10-12T13:05:27.362Z,17.07
2022-10-12T13:06:27.367Z,17.12
2022-10-12T13:07:27.317Z,17.04
2022-10-12T13:08:27.314Z,17.11
2022-10-12T13:09:27.293Z,17.06
2022-10-12T13:10:27.335Z,17.01
2022-10-12T13:11:27.277Z,16.97
2022-10-12T13:12:27.300Z,16.98
2022-10-12T13:13:27.245Z,17.00
2022-10-12T13:14:27.240Z,17.01
2022-10-12T13:15:27.232Z,17.00
2022-10-12T13:17:09.405Z,17.08
2022-10-12T13:17:33.041Z,17.01
2022-10-12T13:18:46.567Z,17.07
2022-10-12T13:19:28.185Z,17.16
2022-10-12T13:20:27.196Z,17.03
2022-10-12T13:21:27.199Z,17.07
2022-10-12T13:22:27.155Z,17.21
2022-10-12T13:23:27.141Z,17.11
2022-10-12T13:24:27.127Z,17.14
2022-10-12T13:25:27.157Z,17.19
2022-10-12T13:26:27.114Z,17.19
2022-10-12T13:27:27.113Z,17.28
2022-10-12T13:28:27.134Z,17.25
2022-10-12T13:29:27.102Z,17.25
2022-10-12T13:30:27.079Z,17.31
2022-10-12T13:31:27.051Z,17.30
2022-10-12T13:32:27.050Z,17.30
2022-10-12T13:33:32.161Z,17.33
2022-10-12T13:34:28.027Z,17.28
2022-10-12T13:35:27.047Z,17.26
2022-10-12T13:36:27.014Z,17.33
2022-10-12T13:37:27.019Z,17.38
2022-10-12T13:38:26.980Z,17.28
2022-10-12T13:39:26.983Z,17.31
2022-10-12T13:40:26.950Z,17.25
2022-10-12T13:41:26.936Z,17.23
2022-10-12T13:42:26.931Z,17.30
2022-10-12T13:43:26.939Z,17.33
2022-10-12T13:44:26.927Z,17.36
2022-10-12T13:45:26.909Z,17.30
2022-10-12T13:46:26.913Z,17.33
2022-10-12T13:47:26.895Z,17.31
2022-10-12T13:48:53.876Z,17.08
2022-10-12T13:49:27.883Z,17.14
2022-10-12T13:50:26.843Z,17.19
2022-10-12T13:51:26.880Z,17.12
2022-10-12T13:52:31.678Z,17.15
2022-10-12T13:53:27.806Z,17.14
2022-10-12T13:54:26.797Z,17.12
2022-10-12T13:55:26.797Z,17.15
2022-10-12T13:56:26.779Z,17.06
2022-10-12T13:57:26.818Z,17.16
2022-10-12T13:58:26.757Z,17.15
2022-10-12T13:59:26.743Z,17.16
2022-10-12T14:00:26.725Z,17.16
2022-10-12T14:01:26.849Z,17.08
2022-10-12T14:02:26.743Z,17.15
2022-10-12T14:03:26.707Z,17.15
2022-10-12T14:04:26.694Z,17.18
2022-10-12T14:05:26.678Z,17.14
2022-10-12T14:06:26.686Z,17.08
2022-10-12T14:07:26.657Z,17.14
2022-10-12T14:08:26.696Z,17.04
2022-10-12T14:09:26.669Z,17.11
2022-10-12T14:10:26.625Z,17.03
2022-10-12T14:11:26.613Z,17.03
2022-10-12T14:12:26.634Z,17.07
2022-10-12T14:13:26.600Z,17.00
2022-10-12T14:14:26.591Z,17.00
2022-10-12T14:15:26.609Z,17.04
2022-10-12T14:16:26.570Z,17.01
2022-10-12T14:17:26.547Z,16.96
2022-10-12T14:18:26.581Z,16.96
2022-10-12T14:19:26.532Z,16.89
2022-10-12T14:20:26.523Z,16.94
2022-10-12T14:21:26.503Z,17.00
2022-10-12T14:22:26.561Z,16.98
2022-10-12T14:23:26.521Z,16.98
2022-10-12T14:24:26.520Z,17.00
2022-10-12T14:25:26.464Z,16.93
2022-10-12T14:26:27.274Z,16.97
2022-10-12T14:27:26.440Z,16.93
2022-10-12T14:28:26.471Z,16.91
2022-10-12T14:29:26.429Z,16.93
2022-10-12T14:30:26.420Z,16.86
2022-10-12T14:31:26.404Z,16.81
2022-10-12T14:32:26.409Z,16.86
2022-10-12T14:33:26.375Z,16.94
2022-10-12T14:34:26.426Z,16.91
2022-10-12T14:35:26.365Z,16.86
2022-10-12T14:36:26.385Z,16.86
2022-10-12T14:37:26.347Z,16.89
2022-10-12T14:38:26.348Z,16.88
2022-10-12T14:39:26.309Z,16.79
2022-10-12T14:40:26.319Z,16.81
2022-10-12T14:41:26.303Z,16.86
2022-10-12T14:42:26.280Z,16.89
2022-10-12T14:43:26.298Z,16.89
2022-10-12T14:44:26.267Z,16.85
2022-10-12T14:45:26.247Z,16.91
2022-10-12T14:46:26.242Z,16.89
2022-10-12T14:47:26.220Z,16.85
2022-10-12T14:48:26.234Z,16.86
2022-10-12T14:49:26.219Z,16.83
2022-10-12T14:50:26.190Z,16.78
2022-10-12T14:51:26.179Z,16.71
2022-10-12T14:52:26.190Z,16.73
2022-10-12T14:53:26.184Z,16.71
2022-10-12T14:54:26.165Z,16.82
2022-10-12T14:55:26.164Z,16.71
2022-10-12T14:56:26.236Z,16.71
2022-10-12T14:57:26.124Z,16.73
2022-10-12T14:58:26.102Z,16.70
2022-10-12T14:59:26.111Z,16.61
2022-10-12T15:00:26.101Z,16.58
2022-10-12T15:01:26.136Z,16.58
2022-10-12T15:02:26.082Z,16.63
2022-10-12T15:03:26.071Z,16.61
2022-10-12T15:04:26.058Z,16.53
2022-10-12T15:05:26.046Z,16.56
2022-10-12T15:06:26.024Z,16.53
2022-10-12T15:07:26.009Z,16.56
2022-10-12T15:08:26.051Z,16.56
2022-10-12T15:09:26.000Z,16.58
2022-10-12T15:10:25.992Z,16.56
2022-10-12T15:11:25.999Z,16.57
2022-10-12T15:12:25.967Z,16.50
2022-10-12T15:13:25.958Z,16.49
2022-10-12T15:14:25.926Z,16.57
2022-10-12T15:15:28.938Z,16.46
2022-10-12T15:16:25.928Z,16.50
2022-10-12T15:17:25.949Z,16.45
2022-10-12T15:18:25.899Z,16.48
2022-10-12T15:19:25.905Z,16.39
2022-10-12T15:20:25.927Z,16.41
2022-10-12T15:21:25.872Z,16.34
2022-10-12T15:22:25.864Z,16.33
2022-10-12T15:23:25.844Z,16.30
2022-10-12T15:24:25.824Z,16.25
2022-10-12T15:25:25.837Z,16.30
2022-10-12T15:26:25.808Z,16.34
2022-10-12T15:27:25.793Z,16.23
2022-10-12T15:28:25.931Z,16.25
2022-10-12T15:29:25.781Z,16.25
2022-10-12T15:30:25.759Z,16.27
2022-10-12T15:31:25.746Z,16.21
2022-10-12T15:32:25.743Z,16.25
2022-10-12T15:33:25.764Z,16.25
2022-10-12T15:34:25.803Z,16.14
2022-10-12T15:35:25.728Z,16.14
2022-10-12T15:36:25.692Z,16.14
2022-10-12T15:37:25.725Z,16.09
2022-10-12T15:38:25.714Z,16.12
2022-10-12T15:39:25.660Z,16.08
2022-10-12T15:40:25.655Z,16.07
2022-10-12T15:41:25.658Z,16.09
2022-10-12T15:42:25.630Z,16.08
2022-10-12T15:43:25.617Z,16.08
2022-10-12T15:44:25.634Z,16.08
2022-10-12T15:45:25.622Z,16.08
2022-10-12T15:46:25.588Z,15.94
2022-10-12T15:47:25.581Z,16.02
2022-10-12T15:48:25.573Z,16.01
2022-10-12T15:49:25.549Z,15.97
2022-10-12T15:50:25.574Z,15.94
2022-10-12T15:51:25.534Z,15.87
2022-10-12T15:52:25.513Z,15.89
2022-10-12T15:53:25.516Z,15.94
2022-10-12T15:54:25.492Z,15.92
2022-10-12T15:55:25.500Z,15.90
2022-10-12T15:56:25.482Z,15.92
2022-10-12T15:57:25.452Z,15.90
2022-10-12T15:58:25.474Z,15.76
2022-10-12T15:59:25.439Z,15.84
2022-10-12T16:00:25.444Z,15.83
2022-10-12T16:01:25.516Z,15.82
2022-10-12T16:02:25.429Z,15.78
2022-10-12T16:03:26.399Z,15.83
2022-10-12T16:04:25.412Z,15.76
2022-10-12T16:05:25.383Z,15.80
2022-10-12T16:06:25.365Z,15.59
2022-10-12T16:07:25.366Z,15.54
2022-10-12T16:08:25.345Z,15.50
2022-10-12T16:09:25.353Z,15.47
2022-10-12T16:10:25.316Z,15.53
2022-10-12T16:11:25.367Z,15.51
2022-10-12T16:12:25.341Z,15.35
2022-10-12T16:13:25.303Z,15.53
2022-10-12T16:14:25.291Z,15.38
2022-10-12T16:15:25.261Z,15.25
2022-10-12T16:16:25.270Z,15.28
2022-10-12T16:17:25.268Z,15.25
2022-10-12T16:18:25.257Z,15.28
2022-10-12T16:19:25.218Z,15.21
2022-10-12T16:20:25.208Z,15.17
2022-10-12T16:21:25.215Z,15.03
2022-10-12T16:22:25.216Z,15.01
2022-10-12T16:23:25.216Z,15.11
2022-10-12T16:24:25.183Z,15.07
2022-10-12T16:25:25.160Z,14.99
2022-10-12T16:26:25.134Z,15.07
2022-10-12T16:27:25.133Z,15.01
2022-10-12T16:28:25.240Z,15.03
2022-10-12T16:29:25.117Z,15.02
2022-10-12T16:30:25.095Z,14.98
2022-10-12T16:31:25.106Z,14.99
2022-10-12T16:32:25.102Z,15.01
2022-10-12T16:33:25.060Z,14.95
2022-10-12T16:34:25.078Z,14.89
2022-10-12T16:35:25.037Z,14.89
2022-10-12T16:36:25.036Z,14.84
2022-10-12T16:37:25.042Z,14.86
2022-10-12T16:38:25.045Z,14.84
2022-10-12T16:39:25.028Z,14.84
2022-10-12T16:40:24.996Z,14.84
2022-10-12T16:41:24.977Z,14.70
2022-10-12T16:42:24.970Z,14.78
2022-10-12T16:43:24.967Z,14.70
2022-10-12T16:44:24.976Z,14.69
2022-10-12T16:45:24.933Z,14.75
2022-10-12T16:46:24.931Z,14.69
2022-10-12T16:47:24.920Z,14.72
2022-10-12T16:48:24.925Z,14.57
2022-10-12T16:49:24.887Z,14.52
2022-10-12T16:50:24.899Z,14.50
2022-10-12T16:51:24.863Z,14.51
2022-10-12T16:52:24.862Z,14.51
2022-10-12T16:53:24.865Z,14.47
2022-10-12T16:54:24.837Z,14.46
2022-10-12T16:55:24.829Z,14.47
2022-10-12T16:56:24.812Z,14.58
2022-10-12T16:57:24.819Z,14.60
2022-10-12T16:58:24.792Z,14.60
2022-10-12T16:59:24.812Z,14.68
2022-10-12T17:00:24.777Z,14.75
2022-10-12T17:01:24.834Z,14.68
2022-10-12T17:02:24.747Z,14.68
2022-10-12T17:03:24.753Z,14.73
2022-10-12T17:04:24.736Z,14.75
2022-10-12T17:05:24.766Z,14.70
2022-10-12T17:06:24.700Z,14.77
2022-10-12T17:07:24.693Z,14.70
2022-10-12T17:08:24.708Z,14.72
2022-10-12T17:09:24.670Z,14.72
2022-10-12T17:10:24.869Z,14.77
2022-10-12T17:11:24.665Z,14.78
2022-10-12T17:12:24.657Z,14.70
2022-10-12T17:13:24.650Z,14.72
2022-10-12T17:14:24.662Z,14.70
2022-10-12T17:15:24.619Z,14.70
2022-10-12T17:16:24.596Z,14.69
2022-10-12T17:17:24.610Z,14.58
2022-10-12T17:18:24.577Z,14.69
2022-10-12T17:19:24.559Z,14.60
2022-10-12T17:20:24.622Z,14.61
2022-10-12T17:21:24.563Z,14.60
2022-10-12T17:22:24.532Z,14.65
2022-10-12T17:23:24.539Z,14.62
2022-10-12T17:24:24.529Z,14.60
2022-10-12T17:25:24.497Z,14.58
2022-10-12T17:26:24.493Z,14.57
2022-10-12T17:27:27.429Z,14.55
2022-10-12T17:28:25.518Z,14.55